Renner Field-Goodland Municipal Airport
KGLD : now visible

Airfield :











YOU CAN JOIN US ON...

 
LOGIN :

Register | Disclaimer

   EN    FR    IT 

 









Legend :    VFR   Marginal VFR   IFR   Intensive IFR   Very Intensive IFR
Visi :
Ceiling :
>= 8 km
>= 3000ft
5 to 8 km
1000 to 3000 ft
1500m to 5 km
500 to 1000 ft
800 to 1500m
200 to 500 ft
< 800m
< 200 ft
Symbols :   Thunderstorms  Fog  Heavy snow  Heavy precipitations  Wind > 20 kt






- Airport Elevation : 3656 ft


KGLD - Renner Field-Goodland Municipal

CURRENT METAR :
  • 300853Z AUTO 19012KT 10SM CLR 19/03 A2998 RMK AO2 SLP104 60001 T01890033 58020 $

EXPIRED METARs :
  • 300753Z AUTO 23010G20KT 10SM BKN120 20/05 A3001 RMK AO2 RAE04 SLP115 P0000 T02000050 $
  • 300653Z AUTO 10SM -RA SCT050 BKN070 BKN090 17/09 A3001 RMK AO2 RAB34 SLP121 P0001 T01670089 403170100 $

TAF KGLD
Valid from the 30 at 06:00 until the 01 at 06:00 UTC


300520Z 3006/0106 15012KT P6SM -SHRA FEW100
FM300900 18009KT P6SM SCT240
FM301300 21008KT P6SM FEW240
FM301600 18012G20KT P6SM FEW240
FM010000 16010KT P6SM SKC
KZDV FIR / North America



MET'MAP, your aeronautical weather chart ! - Copyright ORBIFLY December 2007 - Disclaimer

ORBIFLY MET'MAP TEAM :

Programming & Development : Alexandra Zaïnal
Original concept : Baudouin d'Aumeries
Technical & hardware support : Manuel Goepfert
Assistance : Marc-Olivier Méhu




SOURCES & CREDITS :

   NOAA       Earth
Advisory